Packwaukee, WI (53953)

7:00 PM CST on February 13, 2016 (GMT -0600)
Marquette County | | Change Station
CLOSE
Current Station
Personal Weather Station
Location: Montello, WI
Elevation: 797 ft
Nearby Weather Stations

Elev 797 ft 43.79 °N, 89.34 °W | Updated 21 minutes ago

Mostly Cloudy
Mostly Cloudy
5.0 °F
Feels Like 5 °F
N
0.0
Wind Variable Wind from West
Gusts 0.0 mph

Today
High -- | Low -- °F
--% Chance of Precip.
Yesterday
High -- | Low -- °F
Precip. -- in
Pressure 30.54 in
Visibility 10.0 miles
Clouds Clear
Windchill 5 °F
Dew Point -6 °F
Humidity 58%
Rainfall Not available.
Snow Depth Not available.
7:00 AM 5:24 PM
Waxing Crescent, 36% visible
METAR KY50 140056Z AUTO 00000KT 10SM CLR M18/M24 A3047 RMK AO2 TSNO T11771244 SLP341
Pressure 30.54 in
Visibility 10.0 miles
Clouds Clear
Windchill 5 °F
Dew Point -6 °F
Humidity 58%
Rainfall Not available.
Snow Depth Not available.
7:00 AM 5:24 PM
Waxing Crescent, 36% visible
METAR KY50 140056Z AUTO 00000KT 10SM CLR M18/M24 A3047 RMK AO2 TSNO T11771244 SLP341

10-Day Weather Forecast

Almanac

Astronomy

Feb. 13, 2016 Rise Set
Actual Time
Civil Twilight
Nautical Twilight
Astronomical Twilight
Moon
Length of Visible Light
Length of Day
Tomorrow will be .
, % of the Moon is Illuminated

Today's Extremes

State Highs State Lows

Community

WunderPhotos

Upload Photos

1,892,715 photos uploaded!

WunderBlog® & News

Nearby

Air Quality

  Air Quality AQ Index Pollutant
Not available.

Snow Depth

Station Depth Elevation

Earthquake Activity

City Distance Mag. Time & Date
Minimum magnitude displayed is 2.5.

Coastal Water Temperatures

Place Temperature

Stations

Nearby Weather Stations

Station Location Temp. Windchill Dew Point Humidity Wind Precip. Elev Updated Type
                   

Watches & Warnings

There are currently no watches in effect.